DWI5220 MDPC-KSFB
Flight info
| Callsign | DWI5220 |
|---|---|
| Flight time | 2h 30m |
| Altitude | 36000 |
| Route | MALVN2T MALVN Y261 MADIZ DCT UCRAZ DCT OCTAL MUNGI1 |
| Aircraft | B38M/M-SDE1FGHILORVWXY/HB1 |
Departure
| Time | 2026-05-08 17:58 |
|---|---|
| Airport | Punta Cana International Airport (MDPC) |
Arrival
| Time | 2026-05-08 20:28 |
|---|---|
| Airport | Orlando Sanford International Airport (KSFB) |
| Time | Latitude | Longitude | Altitude | Speed | Heading |
|---|---|---|---|---|---|
| 2026-05-08 17:24 | 18.56432 | -68.36905 | 53 ft | 0 kts | 85° |
| 2026-05-08 17:43 | 18.56431 | -68.36922 | 51 ft | 4 kts | 86° |
| 2026-05-08 17:44 | 18.56429 | -68.36945 | 48 ft | 2 kts | 86° |
| 2026-05-08 17:44 | 18.56429 | -68.36973 | 48 ft | 4 kts | 98° |
| 2026-05-08 17:44 | 18.56437 | -68.36998 | 48 ft | 4 kts | 128° |
| 2026-05-08 17:44 | 18.56448 | -68.37008 | 46 ft | 1 kts | 148° |
| 2026-05-08 17:45 | 18.56434 | -68.37014 | 49 ft | 4 kts | 219° |
| 2026-05-08 17:45 | 18.56417 | -68.37010 | 48 ft | 3 kts | 354° |
| 2026-05-08 17:45 | 18.56399 | -68.37008 | 51 ft | 4 kts | 355° |
| 2026-05-08 17:45 | 18.56371 | -68.37005 | 47 ft | 4 kts | 355° |
| 2026-05-08 17:46 | 18.56366 | -68.37005 | 48 ft | 1 kts | 355° |
| 2026-05-08 17:51 | 18.56384 | -68.37007 | 51 ft | 5 kts | 355° |
| 2026-05-08 17:52 | 18.56434 | -68.37012 | 49 ft | 10 kts | 355° |
| 2026-05-08 17:52 | 18.56495 | -68.37052 | 52 ft | 13 kts | 279° |
| 2026-05-08 17:52 | 18.56483 | -68.37237 | 53 ft | 11 kts | 263° |
| 2026-05-08 17:53 | 18.56474 | -68.37309 | 50 ft | 9 kts | 262° |
| 2026-05-08 17:53 | 18.56466 | -68.37366 | 53 ft | 7 kts | 262° |
| 2026-05-08 17:53 | 18.56464 | -68.37407 | 53 ft | 6 kts | 268° |
| 2026-05-08 17:53 | 18.56462 | -68.37459 | 50 ft | 9 kts | 267° |
| 2026-05-08 17:54 | 18.56458 | -68.37536 | 53 ft | 11 kts | 266° |
| 2026-05-08 17:54 | 18.56451 | -68.37608 | 53 ft | 9 kts | 263° |
| 2026-05-08 17:54 | 18.56445 | -68.37668 | 51 ft | 8 kts | 266° |
| 2026-05-08 17:54 | 18.56443 | -68.37726 | 53 ft | 8 kts | 275° |
| 2026-05-08 17:55 | 18.56483 | -68.37777 | 53 ft | 12 kts | 340° |
| 2026-05-08 17:55 | 18.56585 | -68.37792 | 52 ft | 16 kts | 354° |
| 2026-05-08 17:55 | 18.56692 | -68.37827 | 53 ft | 15 kts | 304° |
| 2026-05-08 17:55 | 18.56722 | -68.37918 | 53 ft | 12 kts | 301° |
| 2026-05-08 17:56 | 18.56766 | -68.38002 | 53 ft | 14 kts | 294° |
| 2026-05-08 17:56 | 18.56808 | -68.38102 | 49 ft | 16 kts | 293° |
| 2026-05-08 17:56 | 18.56854 | -68.38211 | 53 ft | 17 kts | 295° |
| 2026-05-08 17:56 | 18.56951 | -68.38272 | 52 ft | 17 kts | 345° |
| 2026-05-08 17:57 | 18.57046 | -68.38243 | 54 ft | 13 kts | 72° |
| 2026-05-08 17:57 | 18.57096 | -68.38037 | 48 ft | 64 kts | 74° |
| 2026-05-08 17:57 | 18.57295 | -68.37333 | 53 ft | 135 kts | 74° |
| 2026-05-08 17:57 | 18.57598 | -68.36178 | 196 ft | 181 kts | 78° |
| 2026-05-08 17:58 | 18.57808 | -68.35304 | 731 ft | 188 kts | 76° |
| 2026-05-08 17:58 | 18.58150 | -68.33939 | 1615 ft | 199 kts | 76° |
| 2026-05-08 17:58 | 18.58611 | -68.31953 | 2532 ft | 222 kts | 81° |
| 2026-05-08 17:58 | 18.58554 | -68.30266 | 3126 ft | 240 kts | 113° |
| 2026-05-08 17:59 | 18.57961 | -68.29279 | 3713 ft | 243 kts | 133° |
| 2026-05-08 17:59 | 18.55908 | -68.28196 | 4686 ft | 268 kts | 174° |
| 2026-05-08 17:59 | 18.54633 | -68.28325 | 5120 ft | 281 kts | 196° |
| 2026-05-08 17:59 | 18.52996 | -68.29451 | 6001 ft | 289 kts | 229° |
| 2026-05-08 18:00 | 18.52110 | -68.31346 | 6934 ft | 293 kts | 260° |
| 2026-05-08 18:00 | 18.52480 | -68.35509 | 8996 ft | 288 kts | 282° |
| 2026-05-08 18:00 | 18.52863 | -68.37617 | 9723 ft | 300 kts | 283° |
| 2026-05-08 18:01 | 18.53273 | -68.39799 | 10457 ft | 306 kts | 283° |
| 2026-05-08 18:01 | 18.53707 | -68.42058 | 10988 ft | 320 kts | 283° |
| 2026-05-08 18:01 | 18.54162 | -68.44398 | 11400 ft | 336 kts | 283° |
| 2026-05-08 18:01 | 18.54644 | -68.46861 | 11921 ft | 347 kts | 283° |
| 2026-05-08 18:02 | 18.55131 | -68.49340 | 12780 ft | 348 kts | 283° |
| 2026-05-08 18:02 | 18.55628 | -68.51857 | 13488 ft | 352 kts | 284° |
| 2026-05-08 18:02 | 18.56130 | -68.54404 | 14194 ft | 355 kts | 284° |
| 2026-05-08 18:02 | 18.56629 | -68.56934 | 14795 ft | 359 kts | 284° |
| 2026-05-08 18:03 | 18.57139 | -68.59526 | 15387 ft | 362 kts | 284° |
| 2026-05-08 18:03 | 18.57655 | -68.62145 | 15982 ft | 365 kts | 284° |
| 2026-05-08 18:03 | 18.58174 | -68.64784 | 16566 ft | 368 kts | 284° |
| 2026-05-08 18:03 | 18.58692 | -68.67416 | 17114 ft | 372 kts | 284° |
| 2026-05-08 18:04 | 18.59220 | -68.70109 | 17680 ft | 375 kts | 284° |
| 2026-05-08 18:04 | 18.59749 | -68.72800 | 18238 ft | 378 kts | 284° |
| 2026-05-08 18:04 | 18.60284 | -68.75533 | 18682 ft | 381 kts | 284° |
| 2026-05-08 18:04 | 18.60823 | -68.78282 | 19165 ft | 383 kts | 284° |
| 2026-05-08 18:05 | 18.61365 | -68.81052 | 19608 ft | 386 kts | 284° |
| 2026-05-08 18:05 | 18.61905 | -68.83812 | 20068 ft | 388 kts | 283° |
| 2026-05-08 18:05 | 18.62453 | -68.86615 | 20539 ft | 390 kts | 283° |
| 2026-05-08 18:05 | 18.63046 | -68.89424 | 20969 ft | 392 kts | 290° |
| 2026-05-08 18:06 | 18.64230 | -68.91955 | 21418 ft | 390 kts | 307° |
| 2026-05-08 18:06 | 18.65845 | -68.94286 | 21836 ft | 393 kts | 308° |
| 2026-05-08 18:06 | 18.67494 | -68.96612 | 22253 ft | 395 kts | 308° |
| 2026-05-08 18:06 | 18.69146 | -68.98911 | 22696 ft | 398 kts | 309° |
| 2026-05-08 18:07 | 18.70843 | -69.01248 | 23127 ft | 400 kts | 309° |
| 2026-05-08 18:07 | 18.72551 | -69.03590 | 23581 ft | 403 kts | 309° |
| 2026-05-08 18:07 | 18.74250 | -69.05915 | 23933 ft | 405 kts | 309° |
| 2026-05-08 18:07 | 18.75983 | -69.08286 | 24301 ft | 407 kts | 309° |
| 2026-05-08 18:08 | 18.77720 | -69.10663 | 24666 ft | 410 kts | 309° |
| 2026-05-08 18:08 | 18.79448 | -69.13028 | 25029 ft | 412 kts | 309° |
| 2026-05-08 18:08 | 18.81208 | -69.15438 | 25390 ft | 414 kts | 309° |
| 2026-05-08 18:08 | 18.82956 | -69.17833 | 25758 ft | 416 kts | 309° |
| 2026-05-08 18:09 | 18.84734 | -69.20269 | 26113 ft | 418 kts | 309° |
| 2026-05-08 18:09 | 18.86520 | -69.22718 | 26477 ft | 420 kts | 310° |
| 2026-05-08 18:09 | 18.88292 | -69.25148 | 26828 ft | 422 kts | 310° |
| 2026-05-08 18:09 | 18.90095 | -69.27623 | 27163 ft | 425 kts | 310° |
| 2026-05-08 18:10 | 18.91904 | -69.30105 | 27520 ft | 426 kts | 310° |
| 2026-05-08 18:10 | 18.93702 | -69.32575 | 27853 ft | 429 kts | 310° |
| 2026-05-08 18:10 | 18.95534 | -69.35091 | 28181 ft | 431 kts | 310° |
| 2026-05-08 18:10 | 18.97374 | -69.37620 | 28519 ft | 433 kts | 310° |
| 2026-05-08 18:11 | 18.99192 | -69.40120 | 28849 ft | 435 kts | 310° |
| 2026-05-08 18:11 | 19.01042 | -69.42664 | 29153 ft | 437 kts | 310° |
| 2026-05-08 18:11 | 19.02910 | -69.45234 | 29474 ft | 439 kts | 310° |
| 2026-05-08 18:11 | 19.04779 | -69.47807 | 29790 ft | 441 kts | 310° |
| 2026-05-08 18:12 | 19.06635 | -69.50362 | 30079 ft | 443 kts | 310° |
| 2026-05-08 18:12 | 19.08525 | -69.52967 | 30330 ft | 446 kts | 310° |
| 2026-05-08 18:12 | 19.10427 | -69.55588 | 30600 ft | 447 kts | 310° |
| 2026-05-08 18:12 | 19.12309 | -69.58183 | 30857 ft | 449 kts | 310° |
| 2026-05-08 18:13 | 19.14199 | -69.60790 | 31094 ft | 450 kts | 310° |
| 2026-05-08 18:13 | 19.16114 | -69.63434 | 31348 ft | 452 kts | 310° |
| 2026-05-08 18:13 | 19.18039 | -69.66090 | 31601 ft | 454 kts | 309° |
| 2026-05-08 18:13 | 19.19948 | -69.68727 | 31849 ft | 456 kts | 309° |
| 2026-05-08 18:14 | 19.21888 | -69.71408 | 32086 ft | 457 kts | 309° |
| 2026-05-08 18:14 | 19.23830 | -69.74091 | 32336 ft | 459 kts | 309° |
| 2026-05-08 18:14 | 19.25779 | -69.76787 | 32581 ft | 460 kts | 309° |
| 2026-05-08 18:14 | 19.27699 | -69.79444 | 32846 ft | 461 kts | 309° |
| 2026-05-08 18:15 | 19.29659 | -69.82157 | 33195 ft | 460 kts | 309° |
| 2026-05-08 18:15 | 19.31607 | -69.84855 | 33544 ft | 459 kts | 309° |
| 2026-05-08 18:15 | 19.33526 | -69.87513 | 33886 ft | 458 kts | 309° |
| 2026-05-08 18:15 | 19.35467 | -69.90204 | 34189 ft | 457 kts | 309° |
| 2026-05-08 18:16 | 19.37384 | -69.92861 | 34507 ft | 456 kts | 309° |
| 2026-05-08 18:16 | 19.39311 | -69.95535 | 34791 ft | 455 kts | 309° |
| 2026-05-08 18:16 | 19.41245 | -69.98219 | 35074 ft | 454 kts | 309° |
| 2026-05-08 18:16 | 19.43142 | -70.00852 | 35348 ft | 454 kts | 309° |
| 2026-05-08 18:17 | 19.45063 | -70.03521 | 35632 ft | 453 kts | 309° |
| 2026-05-08 18:17 | 19.46964 | -70.06162 | 35901 ft | 452 kts | 308° |
| 2026-05-08 18:17 | 19.48872 | -70.08815 | 36004 ft | 452 kts | 308° |
| 2026-05-08 18:17 | 19.50779 | -70.11467 | 36005 ft | 450 kts | 308° |
| 2026-05-08 18:18 | 19.54560 | -70.16730 | 36016 ft | 450 kts | 308° |
| 2026-05-08 18:18 | 19.58337 | -70.21991 | 36014 ft | 449 kts | 308° |
| 2026-05-08 18:19 | 19.62138 | -70.27291 | 36004 ft | 449 kts | 308° |
| 2026-05-08 18:19 | 19.65907 | -70.32551 | 36007 ft | 449 kts | 308° |
| 2026-05-08 18:20 | 19.69680 | -70.37820 | 35997 ft | 449 kts | 308° |
| 2026-05-08 18:20 | 19.73473 | -70.43121 | 35999 ft | 449 kts | 308° |
| 2026-05-08 18:21 | 19.77229 | -70.48377 | 35994 ft | 449 kts | 308° |
| 2026-05-08 18:21 | 19.81000 | -70.53657 | 35988 ft | 448 kts | 308° |
| 2026-05-08 18:22 | 19.84756 | -70.58922 | 35991 ft | 448 kts | 308° |
| 2026-05-08 18:22 | 19.88530 | -70.64217 | 35998 ft | 448 kts | 308° |
| 2026-05-08 18:23 | 19.92300 | -70.69509 | 35997 ft | 447 kts | 308° |
| 2026-05-08 18:23 | 19.96037 | -70.74762 | 35999 ft | 447 kts | 308° |
| 2026-05-08 18:24 | 19.99777 | -70.80023 | 36000 ft | 447 kts | 308° |
| 2026-05-08 18:24 | 20.03539 | -70.85319 | 36007 ft | 447 kts | 308° |
| 2026-05-08 18:25 | 20.07270 | -70.90577 | 36004 ft | 447 kts | 308° |
| 2026-05-08 18:25 | 20.11024 | -70.95871 | 36005 ft | 447 kts | 308° |
| 2026-05-08 18:26 | 20.14772 | -71.01161 | 36009 ft | 447 kts | 308° |
| 2026-05-08 18:26 | 20.18508 | -71.06441 | 36005 ft | 447 kts | 308° |
| 2026-05-08 18:27 | 20.21607 | -71.10822 | 36002 ft | 447 kts | 308° |
| 2026-05-08 18:27 | 20.25993 | -71.17031 | 36005 ft | 448 kts | 308° |
| 2026-05-08 18:28 | 20.29723 | -71.22313 | 36008 ft | 447 kts | 308° |
| 2026-05-08 18:28 | 20.33471 | -71.27627 | 36008 ft | 448 kts | 307° |
| 2026-05-08 18:29 | 20.37208 | -71.32930 | 36005 ft | 448 kts | 307° |
| 2026-05-08 18:29 | 20.40931 | -71.38219 | 36005 ft | 448 kts | 307° |
| 2026-05-08 18:30 | 20.44416 | -71.43770 | 36010 ft | 449 kts | 304° |
| 2026-05-08 18:30 | 20.47888 | -71.49291 | 36006 ft | 449 kts | 304° |
| 2026-05-08 18:31 | 20.51358 | -71.54797 | 36008 ft | 449 kts | 304° |
| 2026-05-08 18:31 | 20.54836 | -71.60322 | 36012 ft | 449 kts | 304° |
| 2026-05-08 18:32 | 20.58326 | -71.65871 | 36011 ft | 449 kts | 304° |
| 2026-05-08 18:32 | 20.61792 | -71.71387 | 36015 ft | 449 kts | 304° |
| 2026-05-08 18:33 | 20.65284 | -71.76948 | 36013 ft | 449 kts | 304° |
| 2026-05-08 18:33 | 20.68753 | -71.82480 | 36012 ft | 449 kts | 304° |
| 2026-05-08 18:34 | 20.72224 | -71.88021 | 36013 ft | 449 kts | 304° |
| 2026-05-08 18:34 | 20.75688 | -71.93554 | 36009 ft | 449 kts | 304° |
| 2026-05-08 18:35 | 20.79173 | -71.99126 | 36014 ft | 449 kts | 304° |
| 2026-05-08 18:35 | 20.82652 | -72.04695 | 36014 ft | 449 kts | 304° |
| 2026-05-08 18:36 | 20.86113 | -72.10241 | 36014 ft | 449 kts | 304° |
| 2026-05-08 18:36 | 20.89568 | -72.15781 | 36014 ft | 449 kts | 304° |
| 2026-05-08 18:37 | 20.92878 | -72.21095 | 36012 ft | 449 kts | 304° |
| 2026-05-08 18:37 | 20.96351 | -72.26676 | 36013 ft | 449 kts | 304° |
| 2026-05-08 18:38 | 20.99803 | -72.32228 | 36015 ft | 449 kts | 304° |
| 2026-05-08 18:38 | 21.03254 | -72.37785 | 36015 ft | 449 kts | 304° |
| 2026-05-08 18:39 | 21.06721 | -72.43373 | 36014 ft | 449 kts | 304° |
| 2026-05-08 18:39 | 21.10151 | -72.48904 | 36018 ft | 449 kts | 304° |
| 2026-05-08 18:40 | 21.13627 | -72.54517 | 36016 ft | 449 kts | 304° |
| 2026-05-08 18:40 | 21.17071 | -72.60087 | 36212 ft | 450 kts | 304° |
| 2026-05-08 18:41 | 21.18805 | -72.62897 | 36483 ft | 449 kts | 304° |
| 2026-05-08 18:41 | 21.20531 | -72.65695 | 36729 ft | 449 kts | 304° |
| 2026-05-08 18:41 | 21.22231 | -72.68453 | 36977 ft | 448 kts | 304° |
| 2026-05-08 18:41 | 21.23964 | -72.71264 | 37215 ft | 447 kts | 304° |
| 2026-05-08 18:42 | 21.25672 | -72.74038 | 37473 ft | 446 kts | 304° |
| 2026-05-08 18:42 | 21.27352 | -72.76768 | 37719 ft | 444 kts | 304° |
| 2026-05-08 18:42 | 21.29061 | -72.79545 | 37953 ft | 443 kts | 304° |
| 2026-05-08 18:42 | 21.30765 | -72.82315 | 38024 ft | 442 kts | 303° |
| 2026-05-08 18:43 | 21.34125 | -72.87784 | 38021 ft | 441 kts | 303° |
| 2026-05-08 18:43 | 21.37514 | -72.93304 | 38015 ft | 440 kts | 304° |
| 2026-05-08 18:44 | 21.40879 | -72.98791 | 38015 ft | 440 kts | 303° |
| 2026-05-08 18:44 | 21.44237 | -73.04271 | 38018 ft | 441 kts | 303° |
| 2026-05-08 18:45 | 21.47608 | -73.09778 | 38017 ft | 440 kts | 303° |
| 2026-05-08 18:45 | 21.50950 | -73.15243 | 38014 ft | 440 kts | 303° |
| 2026-05-08 18:46 | 21.54325 | -73.20767 | 38015 ft | 440 kts | 303° |
| 2026-05-08 18:46 | 21.57661 | -73.26234 | 38019 ft | 440 kts | 303° |
| 2026-05-08 18:47 | 21.60460 | -73.30826 | 38018 ft | 440 kts | 303° |
| 2026-05-08 18:47 | 21.63816 | -73.36334 | 38022 ft | 440 kts | 303° |
| 2026-05-08 18:48 | 21.67149 | -73.41812 | 38020 ft | 440 kts | 303° |
| 2026-05-08 18:48 | 21.70489 | -73.47306 | 38019 ft | 440 kts | 303° |
| 2026-05-08 18:49 | 21.73845 | -73.52832 | 38020 ft | 440 kts | 303° |
| 2026-05-08 18:49 | 21.77189 | -73.58344 | 38021 ft | 441 kts | 303° |
| 2026-05-08 18:50 | 21.80521 | -73.63840 | 38022 ft | 441 kts | 303° |
| 2026-05-08 18:50 | 21.83887 | -73.69399 | 38020 ft | 441 kts | 303° |
| 2026-05-08 18:51 | 21.87217 | -73.74904 | 38020 ft | 441 kts | 303° |
| 2026-05-08 18:51 | 21.90550 | -73.80421 | 38022 ft | 441 kts | 303° |
| 2026-05-08 18:52 | 21.93903 | -73.85976 | 38026 ft | 441 kts | 303° |
| 2026-05-08 18:52 | 21.97231 | -73.91496 | 38023 ft | 441 kts | 303° |
| 2026-05-08 18:53 | 22.00581 | -73.97057 | 38022 ft | 441 kts | 303° |
| 2026-05-08 18:53 | 22.03915 | -74.02596 | 38023 ft | 441 kts | 303° |
| 2026-05-08 18:54 | 22.07240 | -74.08129 | 38023 ft | 440 kts | 303° |
| 2026-05-08 18:54 | 22.10575 | -74.13681 | 38021 ft | 440 kts | 303° |
| 2026-05-08 18:55 | 22.15554 | -74.21984 | 38025 ft | 440 kts | 303° |
| 2026-05-08 18:56 | 22.18857 | -74.27498 | 38027 ft | 440 kts | 303° |
| 2026-05-08 18:56 | 22.22185 | -74.33059 | 38026 ft | 440 kts | 303° |
| 2026-05-08 18:57 | 22.25496 | -74.38600 | 38028 ft | 440 kts | 303° |
| 2026-05-08 18:57 | 22.28824 | -74.44171 | 38027 ft | 439 kts | 303° |
| 2026-05-08 18:58 | 22.32121 | -74.49699 | 38025 ft | 439 kts | 303° |
| 2026-05-08 18:58 | 22.35424 | -74.55243 | 38026 ft | 439 kts | 303° |
| 2026-05-08 18:59 | 22.38724 | -74.60787 | 38028 ft | 439 kts | 303° |
| 2026-05-08 18:59 | 22.42015 | -74.66321 | 38025 ft | 438 kts | 303° |
| 2026-05-08 19:00 | 22.45315 | -74.71876 | 38031 ft | 438 kts | 303° |
| 2026-05-08 19:00 | 22.48601 | -74.77415 | 38027 ft | 438 kts | 303° |
| 2026-05-08 19:01 | 22.51878 | -74.82943 | 38035 ft | 438 kts | 303° |
| 2026-05-08 19:01 | 22.55169 | -74.88501 | 38028 ft | 437 kts | 303° |
| 2026-05-08 19:02 | 22.58434 | -74.94021 | 38032 ft | 437 kts | 303° |
| 2026-05-08 19:02 | 22.61698 | -74.99545 | 38027 ft | 437 kts | 303° |
| 2026-05-08 19:03 | 22.64972 | -75.05091 | 38026 ft | 437 kts | 303° |
| 2026-05-08 19:03 | 22.68250 | -75.10650 | 38026 ft | 437 kts | 303° |
| 2026-05-08 19:04 | 22.71514 | -75.16193 | 38022 ft | 437 kts | 303° |
| 2026-05-08 19:04 | 22.74765 | -75.21717 | 38026 ft | 437 kts | 303° |
| 2026-05-08 19:05 | 22.78020 | -75.27256 | 38027 ft | 436 kts | 303° |
| 2026-05-08 19:05 | 22.81293 | -75.32830 | 38027 ft | 436 kts | 303° |
| 2026-05-08 19:06 | 22.84536 | -75.38359 | 38027 ft | 436 kts | 303° |
| 2026-05-08 19:06 | 22.87795 | -75.43922 | 38025 ft | 436 kts | 303° |
| 2026-05-08 19:07 | 22.91038 | -75.49464 | 38025 ft | 436 kts | 303° |
| 2026-05-08 19:07 | 22.94296 | -75.55035 | 38023 ft | 436 kts | 302° |
| 2026-05-08 19:08 | 22.97530 | -75.60573 | 38027 ft | 436 kts | 302° |
| 2026-05-08 19:08 | 23.00787 | -75.66157 | 38025 ft | 436 kts | 302° |
| 2026-05-08 19:09 | 23.04029 | -75.71719 | 38026 ft | 436 kts | 302° |
| 2026-05-08 19:09 | 23.07257 | -75.77265 | 38024 ft | 436 kts | 302° |
| 2026-05-08 19:10 | 23.10504 | -75.82849 | 38025 ft | 436 kts | 302° |
| 2026-05-08 19:10 | 23.13751 | -75.88440 | 38028 ft | 436 kts | 302° |
| 2026-05-08 19:11 | 23.16976 | -75.93998 | 38026 ft | 436 kts | 302° |
| 2026-05-08 19:11 | 23.20203 | -75.99565 | 38030 ft | 436 kts | 302° |
| 2026-05-08 19:12 | 23.23445 | -76.05166 | 38025 ft | 436 kts | 302° |
| 2026-05-08 19:12 | 23.26663 | -76.10731 | 38026 ft | 436 kts | 302° |
| 2026-05-08 19:13 | 23.29883 | -76.16304 | 38024 ft | 436 kts | 302° |
| 2026-05-08 19:13 | 23.33105 | -76.21887 | 38026 ft | 436 kts | 302° |
| 2026-05-08 19:14 | 23.36339 | -76.27498 | 38024 ft | 436 kts | 302° |
| 2026-05-08 19:14 | 23.39569 | -76.33108 | 38023 ft | 436 kts | 302° |
| 2026-05-08 19:15 | 23.42776 | -76.38684 | 38027 ft | 436 kts | 302° |
| 2026-05-08 19:15 | 23.46009 | -76.44311 | 38025 ft | 436 kts | 302° |
| 2026-05-08 19:16 | 23.49220 | -76.49907 | 38026 ft | 436 kts | 302° |
| 2026-05-08 19:16 | 23.52429 | -76.55505 | 38028 ft | 436 kts | 302° |
| 2026-05-08 19:17 | 23.55622 | -76.61080 | 38021 ft | 436 kts | 302° |
| 2026-05-08 19:17 | 23.58853 | -76.66731 | 38020 ft | 436 kts | 302° |
| 2026-05-08 19:18 | 23.62048 | -76.72322 | 38022 ft | 436 kts | 302° |
| 2026-05-08 19:18 | 23.65269 | -76.77965 | 38025 ft | 436 kts | 302° |
| 2026-05-08 19:19 | 23.68462 | -76.83567 | 38021 ft | 436 kts | 302° |
| 2026-05-08 19:19 | 23.71671 | -76.89204 | 38022 ft | 436 kts | 302° |
| 2026-05-08 19:20 | 23.74854 | -76.94799 | 38019 ft | 436 kts | 302° |
| 2026-05-08 19:20 | 23.78066 | -77.00454 | 38022 ft | 436 kts | 302° |
| 2026-05-08 19:21 | 23.81246 | -77.06058 | 38022 ft | 436 kts | 302° |
| 2026-05-08 19:21 | 23.84444 | -77.11700 | 38020 ft | 436 kts | 302° |
| 2026-05-08 19:22 | 23.87617 | -77.17303 | 38018 ft | 436 kts | 301° |
| 2026-05-08 19:22 | 23.90800 | -77.22931 | 38016 ft | 435 kts | 301° |
| 2026-05-08 19:23 | 23.93986 | -77.28572 | 38017 ft | 435 kts | 301° |
| 2026-05-08 19:23 | 23.97163 | -77.34201 | 38020 ft | 435 kts | 301° |
| 2026-05-08 19:24 | 24.00331 | -77.39821 | 38014 ft | 435 kts | 301° |
| 2026-05-08 19:24 | 24.03489 | -77.45427 | 38014 ft | 434 kts | 301° |
| 2026-05-08 19:25 | 24.06664 | -77.51071 | 38011 ft | 434 kts | 301° |
| 2026-05-08 19:25 | 24.09819 | -77.56686 | 38012 ft | 434 kts | 301° |
| 2026-05-08 19:26 | 24.12987 | -77.62330 | 38014 ft | 433 kts | 301° |
| 2026-05-08 19:26 | 24.16129 | -77.67934 | 38014 ft | 433 kts | 301° |
| 2026-05-08 19:27 | 24.19279 | -77.73560 | 38011 ft | 433 kts | 301° |
| 2026-05-08 19:27 | 24.20388 | -77.75541 | 38009 ft | 433 kts | 301° |
| 2026-05-08 19:28 | 24.23102 | -77.80395 | 38008 ft | 432 kts | 301° |
| 2026-05-08 19:28 | 24.26245 | -77.86020 | 38009 ft | 432 kts | 301° |
| 2026-05-08 19:29 | 24.29947 | -77.91173 | 37996 ft | 432 kts | 309° |
| 2026-05-08 19:29 | 24.33829 | -77.96233 | 38004 ft | 432 kts | 309° |
| 2026-05-08 19:30 | 24.37682 | -78.01239 | 38005 ft | 431 kts | 309° |
| 2026-05-08 19:30 | 24.41565 | -78.06287 | 38001 ft | 431 kts | 309° |
| 2026-05-08 19:31 | 24.45425 | -78.11312 | 38002 ft | 430 kts | 309° |
| 2026-05-08 19:31 | 24.49270 | -78.16322 | 38007 ft | 430 kts | 309° |
| 2026-05-08 19:32 | 24.53117 | -78.21339 | 38006 ft | 429 kts | 309° |
| 2026-05-08 19:32 | 24.56324 | -78.25526 | 38007 ft | 429 kts | 308° |
| 2026-05-08 19:33 | 24.60800 | -78.31376 | 38009 ft | 428 kts | 308° |
| 2026-05-08 19:33 | 24.64624 | -78.36379 | 38009 ft | 428 kts | 308° |
| 2026-05-08 19:34 | 24.68444 | -78.41383 | 38009 ft | 428 kts | 308° |
| 2026-05-08 19:34 | 24.72263 | -78.46390 | 38008 ft | 428 kts | 308° |
| 2026-05-08 19:35 | 24.75450 | -78.50573 | 38010 ft | 427 kts | 308° |
| 2026-05-08 19:35 | 24.79899 | -78.56417 | 38012 ft | 427 kts | 308° |
| 2026-05-08 19:36 | 24.83090 | -78.60614 | 38011 ft | 427 kts | 308° |
| 2026-05-08 19:36 | 24.86888 | -78.65614 | 38011 ft | 426 kts | 308° |
| 2026-05-08 19:37 | 24.90694 | -78.70630 | 38013 ft | 426 kts | 308° |
| 2026-05-08 19:37 | 24.94469 | -78.75610 | 38013 ft | 425 kts | 308° |
| 2026-05-08 19:38 | 24.98279 | -78.80642 | 38009 ft | 425 kts | 308° |
| 2026-05-08 19:38 | 25.02044 | -78.85618 | 38012 ft | 425 kts | 308° |
| 2026-05-08 19:39 | 25.05852 | -78.90657 | 38010 ft | 424 kts | 308° |
| 2026-05-08 19:39 | 25.09610 | -78.95636 | 38011 ft | 424 kts | 308° |
| 2026-05-08 19:40 | 25.13376 | -79.00631 | 38010 ft | 423 kts | 308° |
| 2026-05-08 19:40 | 25.17153 | -79.05645 | 38009 ft | 423 kts | 308° |
| 2026-05-08 19:41 | 25.20890 | -79.10611 | 38012 ft | 422 kts | 308° |
| 2026-05-08 19:41 | 25.24651 | -79.15617 | 38012 ft | 422 kts | 307° |
| 2026-05-08 19:42 | 25.28358 | -79.20554 | 38009 ft | 421 kts | 307° |
| 2026-05-08 19:42 | 25.32112 | -79.25558 | 38009 ft | 420 kts | 307° |
| 2026-05-08 19:43 | 25.35832 | -79.30524 | 38009 ft | 420 kts | 307° |
| 2026-05-08 19:43 | 25.39543 | -79.35481 | 38009 ft | 419 kts | 307° |
| 2026-05-08 19:44 | 25.43270 | -79.40466 | 38009 ft | 419 kts | 307° |
| 2026-05-08 19:44 | 25.46967 | -79.45417 | 38006 ft | 418 kts | 307° |
| 2026-05-08 19:45 | 25.50688 | -79.50404 | 38008 ft | 418 kts | 307° |
| 2026-05-08 19:45 | 25.54346 | -79.55312 | 37784 ft | 417 kts | 307° |
| 2026-05-08 19:45 | 25.56191 | -79.57788 | 37569 ft | 417 kts | 307° |
| 2026-05-08 19:46 | 25.58041 | -79.60273 | 37340 ft | 417 kts | 307° |
| 2026-05-08 19:46 | 25.59896 | -79.62766 | 37059 ft | 417 kts | 307° |
| 2026-05-08 19:46 | 25.63588 | -79.67732 | 36512 ft | 419 kts | 307° |
| 2026-05-08 19:47 | 25.65598 | -79.70044 | 36221 ft | 422 kts | 314° |
| 2026-05-08 19:47 | 25.67785 | -79.72261 | 35960 ft | 423 kts | 314° |
| 2026-05-08 19:47 | 25.69950 | -79.74463 | 35693 ft | 424 kts | 314° |
| 2026-05-08 19:47 | 25.72133 | -79.76675 | 35403 ft | 425 kts | 314° |
| 2026-05-08 19:48 | 25.74302 | -79.78872 | 35117 ft | 426 kts | 314° |
| 2026-05-08 19:48 | 25.76498 | -79.81096 | 34838 ft | 427 kts | 314° |
| 2026-05-08 19:48 | 25.78700 | -79.83326 | 34565 ft | 428 kts | 314° |
| 2026-05-08 19:48 | 25.80908 | -79.85563 | 34294 ft | 429 kts | 314° |
| 2026-05-08 19:49 | 25.83119 | -79.87806 | 34008 ft | 430 kts | 314° |
| 2026-05-08 19:49 | 25.85338 | -79.90057 | 33701 ft | 431 kts | 314° |
| 2026-05-08 19:49 | 25.87531 | -79.92284 | 33399 ft | 432 kts | 314° |
| 2026-05-08 19:49 | 25.89757 | -79.94544 | 33091 ft | 433 kts | 314° |
| 2026-05-08 19:50 | 25.91989 | -79.96812 | 32788 ft | 434 kts | 314° |
| 2026-05-08 19:50 | 25.94194 | -79.99055 | 32502 ft | 435 kts | 314° |
| 2026-05-08 19:50 | 25.96441 | -80.01341 | 32204 ft | 436 kts | 314° |
| 2026-05-08 19:50 | 25.98680 | -80.03619 | 31924 ft | 432 kts | 314° |
| 2026-05-08 19:51 | 26.00865 | -80.05844 | 31828 ft | 418 kts | 313° |
| 2026-05-08 19:51 | 26.02963 | -80.07982 | 31740 ft | 404 kts | 313° |
| 2026-05-08 19:51 | 26.04999 | -80.10057 | 31653 ft | 390 kts | 313° |
| 2026-05-08 19:51 | 26.06966 | -80.12063 | 31563 ft | 377 kts | 313° |
| 2026-05-08 19:52 | 26.08890 | -80.14027 | 31317 ft | 378 kts | 313° |
| 2026-05-08 19:52 | 26.10819 | -80.15996 | 30835 ft | 382 kts | 313° |
| 2026-05-08 19:52 | 26.12770 | -80.17988 | 30375 ft | 383 kts | 313° |
| 2026-05-08 19:52 | 26.14795 | -80.19955 | 29960 ft | 385 kts | 321° |
| 2026-05-08 19:53 | 26.17160 | -80.21348 | 29722 ft | 391 kts | 330° |
| 2026-05-08 19:53 | 26.19621 | -80.22653 | 29585 ft | 391 kts | 329° |
| 2026-05-08 19:53 | 26.22081 | -80.23958 | 29432 ft | 390 kts | 329° |
| 2026-05-08 19:53 | 26.24548 | -80.25253 | 29241 ft | 389 kts | 329° |
| 2026-05-08 19:54 | 26.26977 | -80.26523 | 29055 ft | 388 kts | 329° |
| 2026-05-08 19:54 | 26.29431 | -80.27802 | 28875 ft | 387 kts | 329° |
| 2026-05-08 19:54 | 26.31864 | -80.29071 | 28693 ft | 386 kts | 329° |
| 2026-05-08 19:54 | 26.34282 | -80.30331 | 28525 ft | 385 kts | 329° |
| 2026-05-08 19:55 | 26.36720 | -80.31602 | 28346 ft | 384 kts | 329° |
| 2026-05-08 19:55 | 26.39153 | -80.32872 | 28174 ft | 383 kts | 329° |
| 2026-05-08 19:55 | 26.41563 | -80.34130 | 28051 ft | 383 kts | 329° |
| 2026-05-08 19:55 | 26.43951 | -80.35378 | 27927 ft | 382 kts | 329° |
| 2026-05-08 19:56 | 26.46368 | -80.36642 | 27818 ft | 381 kts | 329° |
| 2026-05-08 19:56 | 26.48775 | -80.37900 | 27670 ft | 381 kts | 329° |
| 2026-05-08 19:56 | 26.51176 | -80.39155 | 27546 ft | 380 kts | 329° |
| 2026-05-08 19:56 | 26.53537 | -80.40391 | 27429 ft | 379 kts | 329° |
| 2026-05-08 19:57 | 26.55945 | -80.41652 | 27306 ft | 379 kts | 329° |
| 2026-05-08 19:57 | 26.58282 | -80.42876 | 27192 ft | 378 kts | 329° |
| 2026-05-08 19:57 | 26.60710 | -80.44147 | 27073 ft | 377 kts | 329° |
| 2026-05-08 19:57 | 26.63124 | -80.45261 | 26960 ft | 380 kts | 335° |
| 2026-05-08 19:58 | 26.65642 | -80.46261 | 26845 ft | 380 kts | 334° |
| 2026-05-08 19:58 | 26.68091 | -80.47258 | 26740 ft | 379 kts | 334° |
| 2026-05-08 19:58 | 26.70575 | -80.48281 | 26628 ft | 378 kts | 334° |
| 2026-05-08 19:58 | 26.73045 | -80.49305 | 26525 ft | 378 kts | 334° |
| 2026-05-08 19:59 | 26.75509 | -80.50327 | 26415 ft | 377 kts | 333° |
| 2026-05-08 19:59 | 26.77940 | -80.51338 | 26315 ft | 376 kts | 333° |
| 2026-05-08 19:59 | 26.80403 | -80.52364 | 26209 ft | 376 kts | 334° |
| 2026-05-08 19:59 | 26.82851 | -80.53383 | 26105 ft | 375 kts | 333° |
| 2026-05-08 20:00 | 26.85286 | -80.54397 | 26005 ft | 375 kts | 333° |
| 2026-05-08 20:00 | 26.87740 | -80.55421 | 25905 ft | 374 kts | 333° |
| 2026-05-08 20:00 | 26.90186 | -80.56441 | 25806 ft | 374 kts | 333° |
| 2026-05-08 20:00 | 26.92594 | -80.57445 | 25707 ft | 373 kts | 333° |
| 2026-05-08 20:01 | 26.95033 | -80.58463 | 25587 ft | 372 kts | 333° |
| 2026-05-08 20:01 | 26.97468 | -80.59479 | 25280 ft | 370 kts | 333° |
| 2026-05-08 20:01 | 26.99860 | -80.60478 | 24878 ft | 369 kts | 333° |
| 2026-05-08 20:01 | 27.02272 | -80.61486 | 24455 ft | 367 kts | 333° |
| 2026-05-08 20:02 | 27.04634 | -80.62474 | 24038 ft | 366 kts | 333° |
| 2026-05-08 20:02 | 27.07034 | -80.63478 | 23612 ft | 365 kts | 333° |
| 2026-05-08 20:02 | 27.09404 | -80.64469 | 23118 ft | 363 kts | 333° |
| 2026-05-08 20:02 | 27.11735 | -80.65445 | 22773 ft | 357 kts | 333° |
| 2026-05-08 20:03 | 27.14064 | -80.66421 | 22529 ft | 354 kts | 333° |
| 2026-05-08 20:03 | 27.16383 | -80.67392 | 22260 ft | 355 kts | 333° |
| 2026-05-08 20:03 | 27.18670 | -80.68350 | 21998 ft | 354 kts | 334° |
| 2026-05-08 20:03 | 27.20994 | -80.69325 | 21719 ft | 353 kts | 334° |
| 2026-05-08 20:04 | 27.23300 | -80.70292 | 21454 ft | 352 kts | 334° |
| 2026-05-08 20:04 | 27.25562 | -80.71241 | 21183 ft | 351 kts | 334° |
| 2026-05-08 20:04 | 27.27839 | -80.72197 | 20913 ft | 350 kts | 334° |
| 2026-05-08 20:04 | 27.30137 | -80.73162 | 20645 ft | 349 kts | 334° |
| 2026-05-08 20:05 | 27.32384 | -80.74106 | 20383 ft | 348 kts | 334° |
| 2026-05-08 20:05 | 27.34649 | -80.75058 | 20122 ft | 346 kts | 334° |
| 2026-05-08 20:05 | 27.36926 | -80.76021 | 19835 ft | 351 kts | 333° |
| 2026-05-08 20:05 | 27.39227 | -80.77019 | 19493 ft | 364 kts | 334° |
| 2026-05-08 20:06 | 27.41610 | -80.78049 | 19256 ft | 368 kts | 334° |
| 2026-05-08 20:06 | 27.44020 | -80.79090 | 18998 ft | 371 kts | 334° |
| 2026-05-08 20:06 | 27.46436 | -80.80134 | 18732 ft | 371 kts | 334° |
| 2026-05-08 20:06 | 27.48853 | -80.81180 | 18453 ft | 370 kts | 334° |
| 2026-05-08 20:07 | 27.51234 | -80.82210 | 18162 ft | 369 kts | 334° |
| 2026-05-08 20:07 | 27.53637 | -80.83250 | 17849 ft | 368 kts | 334° |
| 2026-05-08 20:07 | 27.56032 | -80.84295 | 17553 ft | 365 kts | 332° |
| 2026-05-08 20:07 | 27.58297 | -80.85482 | 17235 ft | 362 kts | 330° |
| 2026-05-08 20:08 | 27.60584 | -80.86693 | 16974 ft | 361 kts | 330° |
| 2026-05-08 20:08 | 27.62841 | -80.87878 | 16711 ft | 360 kts | 330° |
| 2026-05-08 20:08 | 27.65107 | -80.89062 | 16437 ft | 359 kts | 330° |
| 2026-05-08 20:08 | 27.67375 | -80.90245 | 16164 ft | 357 kts | 331° |
| 2026-05-08 20:09 | 27.69638 | -80.91427 | 15891 ft | 356 kts | 331° |
| 2026-05-08 20:09 | 27.71861 | -80.92587 | 15622 ft | 355 kts | 331° |
| 2026-05-08 20:09 | 27.74111 | -80.93762 | 15344 ft | 354 kts | 331° |
| 2026-05-08 20:09 | 27.76348 | -80.94930 | 15077 ft | 352 kts | 331° |
| 2026-05-08 20:10 | 27.78547 | -80.96079 | 14812 ft | 351 kts | 331° |
| 2026-05-08 20:10 | 27.80764 | -80.97239 | 14541 ft | 350 kts | 331° |
| 2026-05-08 20:10 | 27.82981 | -80.98398 | 14264 ft | 349 kts | 332° |
| 2026-05-08 20:10 | 27.85192 | -80.99555 | 14004 ft | 348 kts | 332° |
| 2026-05-08 20:11 | 27.87388 | -81.00705 | 13733 ft | 347 kts | 332° |
| 2026-05-08 20:11 | 27.89550 | -81.01837 | 13449 ft | 346 kts | 332° |
| 2026-05-08 20:11 | 27.91742 | -81.02986 | 13168 ft | 345 kts | 332° |
| 2026-05-08 20:11 | 27.93924 | -81.04070 | 12971 ft | 342 kts | 336° |
| 2026-05-08 20:12 | 27.96138 | -81.04992 | 12791 ft | 332 kts | 336° |
| 2026-05-08 20:12 | 27.98276 | -81.05894 | 12618 ft | 321 kts | 336° |
| 2026-05-08 20:12 | 28.00299 | -81.06757 | 12477 ft | 310 kts | 335° |
| 2026-05-08 20:12 | 28.02305 | -81.07613 | 12304 ft | 307 kts | 337° |
| 2026-05-08 20:13 | 28.04430 | -81.07989 | 12137 ft | 314 kts | 1° |
| 2026-05-08 20:13 | 28.06560 | -81.07404 | 11877 ft | 320 kts | 20° |
| 2026-05-08 20:13 | 28.08579 | -81.06371 | 11514 ft | 322 kts | 23° |
| 2026-05-08 20:13 | 28.10613 | -81.05296 | 11135 ft | 321 kts | 23° |
| 2026-05-08 20:14 | 28.12633 | -81.04234 | 10807 ft | 318 kts | 23° |
| 2026-05-08 20:14 | 28.14625 | -81.03191 | 10542 ft | 312 kts | 23° |
| 2026-05-08 20:14 | 28.16596 | -81.02161 | 10265 ft | 308 kts | 23° |
| 2026-05-08 20:14 | 28.18512 | -81.01164 | 9986 ft | 304 kts | 23° |
| 2026-05-08 20:15 | 28.20428 | -81.00170 | 9695 ft | 300 kts | 23° |
| 2026-05-08 20:15 | 28.22296 | -80.99202 | 9411 ft | 295 kts | 23° |
| 2026-05-08 20:15 | 28.24148 | -80.98243 | 9140 ft | 291 kts | 23° |
| 2026-05-08 20:15 | 28.25988 | -80.97292 | 8883 ft | 288 kts | 22° |
| 2026-05-08 20:16 | 28.27811 | -80.96349 | 8634 ft | 288 kts | 22° |
| 2026-05-08 20:16 | 28.29720 | -80.95730 | 8407 ft | 283 kts | 359° |
| 2026-05-08 20:16 | 28.31629 | -80.95976 | 8259 ft | 279 kts | 350° |
| 2026-05-08 20:16 | 28.33581 | -80.96221 | 8020 ft | 280 kts | 352° |
| 2026-05-08 20:17 | 28.35531 | -80.96425 | 7702 ft | 281 kts | 353° |
| 2026-05-08 20:17 | 28.37464 | -80.96611 | 7354 ft | 280 kts | 353° |
| 2026-05-08 20:17 | 28.39407 | -80.96790 | 7017 ft | 279 kts | 353° |
| 2026-05-08 20:17 | 28.41323 | -80.96962 | 6671 ft | 279 kts | 353° |
| 2026-05-08 20:18 | 28.43259 | -80.97132 | 6319 ft | 277 kts | 353° |
| 2026-05-08 20:18 | 28.45176 | -80.97299 | 5961 ft | 275 kts | 354° |
| 2026-05-08 20:18 | 28.47082 | -80.97465 | 5615 ft | 274 kts | 354° |
| 2026-05-08 20:18 | 28.48996 | -80.97631 | 5297 ft | 276 kts | 354° |
| 2026-05-08 20:19 | 28.50907 | -80.97796 | 4894 ft | 279 kts | 354° |
| 2026-05-08 20:19 | 28.52841 | -80.97963 | 4545 ft | 278 kts | 354° |
| 2026-05-08 20:19 | 28.54771 | -80.98130 | 4210 ft | 276 kts | 354° |
| 2026-05-08 20:19 | 28.56646 | -80.98292 | 4000 ft | 268 kts | 354° |
| 2026-05-08 20:20 | 28.58484 | -80.98450 | 3854 ft | 259 kts | 354° |
| 2026-05-08 20:20 | 28.60216 | -80.98600 | 3710 ft | 249 kts | 354° |
| 2026-05-08 20:20 | 28.61943 | -80.98749 | 3548 ft | 243 kts | 354° |
| 2026-05-08 20:20 | 28.63588 | -80.98891 | 3410 ft | 235 kts | 355° |
| 2026-05-08 20:21 | 28.65199 | -80.99030 | 3249 ft | 229 kts | 355° |
| 2026-05-08 20:21 | 28.66272 | -80.99123 | 3130 ft | 224 kts | 355° |
| 2026-05-08 20:21 | 28.67781 | -80.99295 | 3013 ft | 217 kts | 352° |
| 2026-05-08 20:21 | 28.69744 | -80.99602 | 2710 ft | 212 kts | 352° |
| 2026-05-08 20:22 | 28.70712 | -80.99750 | 2557 ft | 211 kts | 353° |
| 2026-05-08 20:22 | 28.72167 | -80.99973 | 2318 ft | 209 kts | 353° |
| 2026-05-08 20:22 | 28.74035 | -81.00256 | 2041 ft | 200 kts | 353° |
| 2026-05-08 20:22 | 28.74952 | -81.00396 | 1856 ft | 197 kts | 354° |
| 2026-05-08 20:23 | 28.76288 | -81.00596 | 1666 ft | 188 kts | 354° |
| 2026-05-08 20:23 | 28.77482 | -81.01078 | 1576 ft | 181 kts | 323° |
| 2026-05-08 20:23 | 28.78063 | -81.02224 | 1619 ft | 171 kts | 282° |
| 2026-05-08 20:23 | 28.78152 | -81.03595 | 1686 ft | 175 kts | 274° |
| 2026-05-08 20:24 | 28.78185 | -81.04986 | 1660 ft | 174 kts | 272° |
| 2026-05-08 20:24 | 28.78192 | -81.06347 | 1614 ft | 173 kts | 271° |
| 2026-05-08 20:24 | 28.78190 | -81.07726 | 1672 ft | 174 kts | 271° |
| 2026-05-08 20:24 | 28.78190 | -81.09075 | 1633 ft | 165 kts | 272° |
| 2026-05-08 20:25 | 28.78187 | -81.10357 | 1642 ft | 160 kts | 272° |
| 2026-05-08 20:25 | 28.78187 | -81.11623 | 1620 ft | 160 kts | 272° |
| 2026-05-08 20:25 | 28.78186 | -81.12903 | 1526 ft | 160 kts | 272° |
| 2026-05-08 20:25 | 28.78185 | -81.14154 | 1348 ft | 160 kts | 272° |
| 2026-05-08 20:26 | 28.78185 | -81.15418 | 1172 ft | 159 kts | 272° |
| 2026-05-08 20:26 | 28.78183 | -81.16695 | 979 ft | 160 kts | 271° |
| 2026-05-08 20:26 | 28.78182 | -81.17969 | 767 ft | 159 kts | 271° |
| 2026-05-08 20:26 | 28.78181 | -81.19210 | 569 ft | 157 kts | 269° |
| 2026-05-08 20:27 | 28.78178 | -81.20454 | 368 ft | 157 kts | 268° |
| 2026-05-08 20:27 | 28.78180 | -81.21710 | 192 ft | 156 kts | 268° |
| 2026-05-08 20:27 | 28.78181 | -81.22909 | 62 ft | 144 kts | 266° |
| 2026-05-08 20:27 | 28.78175 | -81.23911 | 68 ft | 106 kts | 269° |
| 2026-05-08 20:28 | 28.78173 | -81.24583 | 64 ft | 70 kts | 269° |
| 2026-05-08 20:28 | 28.78173 | -81.25101 | 65 ft | 38 kts | 271° |
| 2026-05-08 20:28 | 28.78119 | -81.25268 | 62 ft | 17 kts | 181° |
| 2026-05-08 20:28 | 28.78064 | -81.25213 | 65 ft | 11 kts | 91° |
| 2026-05-08 20:29 | 28.78059 | -81.25113 | 63 ft | 14 kts | 100° |
| 2026-05-08 20:29 | 28.78014 | -81.25031 | 57 ft | 13 kts | 135° |
| 2026-05-08 20:29 | 28.77946 | -81.24954 | 66 ft | 15 kts | 134° |
| 2026-05-08 20:29 | 28.77873 | -81.24867 | 64 ft | 16 kts | 133° |
| 2026-05-08 20:30 | 28.77791 | -81.24770 | 57 ft | 17 kts | 134° |
| 2026-05-08 20:30 | 28.77763 | -81.24644 | 66 ft | 15 kts | 89° |
| 2026-05-08 20:30 | 28.77763 | -81.24519 | 66 ft | 15 kts | 91° |
| 2026-05-08 20:30 | 28.77762 | -81.24410 | 66 ft | 15 kts | 90° |
| 2026-05-08 20:31 | 28.77763 | -81.24308 | 66 ft | 10 kts | 90° |
| 2026-05-08 20:31 | 28.77761 | -81.24235 | 58 ft | 7 kts | 106° |
| 2026-05-08 20:31 | 28.77738 | -81.24213 | 66 ft | 3 kts | 161° |
| 2026-05-08 20:31 | 28.77720 | -81.24208 | 61 ft | 2 kts | 169° |
| 2026-05-08 20:32 | 28.77691 | -81.24208 | 63 ft | 6 kts | 181° |
| 2026-05-08 20:32 | 28.77650 | -81.24214 | 62 ft | 5 kts | 215° |
| 2026-05-08 20:32 | 28.77635 | -81.24259 | 66 ft | 4 kts | 259° |
| 2026-05-08 20:32 | 28.77633 | -81.24273 | 66 ft | 0 kts | 261° |